createdAt,value
2022-11-03T00:02:00.926Z,14.30
2022-11-03T00:04:28.011Z,14.30
2022-11-03T00:06:56.309Z,14.30
2022-11-03T00:09:24.360Z,14.30
2022-11-03T00:11:52.103Z,14.30
2022-11-03T00:14:19.425Z,14.40
2022-11-03T00:16:46.542Z,14.40
2022-11-03T00:19:16.232Z,14.30
2022-11-03T00:21:43.103Z,14.30
2022-11-03T00:24:10.091Z,14.30
2022-11-03T00:26:37.357Z,14.30
2022-11-03T00:29:13.039Z,14.20
2022-11-03T00:31:41.451Z,14.20
2022-11-03T00:34:09.052Z,14.20
2022-11-03T00:36:41.503Z,14.20
2022-11-03T00:39:08.934Z,14.20
2022-11-03T00:41:36.218Z,14.20
2022-11-03T00:44:03.023Z,14.20
2022-11-03T00:46:36.119Z,14.10
2022-11-03T00:49:04.491Z,14.10
2022-11-03T00:51:31.806Z,14.10
2022-11-03T00:54:00.623Z,14.10
2022-11-03T00:56:34.917Z,14.10
2022-11-03T00:59:03.166Z,14.00
2022-11-03T01:01:42.131Z,14.00
2022-11-03T01:04:28.454Z,14.00
2022-11-03T01:06:58.034Z,14.00
2022-11-03T01:09:38.947Z,13.90
2022-11-03T01:12:08.541Z,13.90
2022-11-03T01:14:44.360Z,13.90
2022-11-03T01:17:19.903Z,13.90
2022-11-03T01:19:47.198Z,13.90
2022-11-03T01:22:15.587Z,13.90
2022-11-03T01:24:43.176Z,13.90
2022-11-03T01:27:13.390Z,13.80
2022-11-03T01:29:40.566Z,13.80
2022-11-03T01:32:08.827Z,13.80
2022-11-03T01:34:36.481Z,13.80
2022-11-03T01:37:03.478Z,13.80
2022-11-03T01:39:30.291Z,13.80
2022-11-03T01:41:57.398Z,13.70
2022-11-03T01:44:27.927Z,13.70
2022-11-03T01:47:15.586Z,13.70
2022-11-03T01:49:55.010Z,13.70
2022-11-03T01:52:38.950Z,13.70
2022-11-03T01:55:26.484Z,13.60
2022-11-03T01:58:02.052Z,13.60
2022-11-03T02:00:28.831Z,13.60
2022-11-03T02:02:56.025Z,13.60
2022-11-03T02:05:26.203Z,13.60
2022-11-03T02:07:55.992Z,13.60
2022-11-03T02:10:24.724Z,13.50
2022-11-03T02:12:51.844Z,13.50
2022-11-03T02:15:21.755Z,13.50
2022-11-03T02:17:50.896Z,13.50
2022-11-03T02:20:24.860Z,13.50
2022-11-03T02:22:51.576Z,13.40
2022-11-03T02:25:42.339Z,13.40
2022-11-03T02:28:10.323Z,13.40
2022-11-03T02:30:56.036Z,13.40
2022-11-03T02:34:01.440Z,13.40
2022-11-03T02:36:48.971Z,13.30
2022-11-03T02:39:22.712Z,13.30
2022-11-03T02:41:52.820Z,13.30
2022-11-03T02:44:20.795Z,13.30
2022-11-03T02:46:52.719Z,13.20
2022-11-03T02:49:19.516Z,13.20
2022-11-03T02:51:46.348Z,13.20
2022-11-03T02:54:22.296Z,13.20
2022-11-03T02:57:06.591Z,13.10
2022-11-03T02:59:43.055Z,13.10
2022-11-03T03:02:15.883Z,13.10
2022-11-03T03:04:53.661Z,13.10
2022-11-03T03:07:27.185Z,13.00
2022-11-03T03:09:59.803Z,13.00
2022-11-03T03:12:27.443Z,13.00
2022-11-03T03:14:58.305Z,12.90
2022-11-03T03:17:52.666Z,12.90
2022-11-03T03:20:40.320Z,12.90
2022-11-03T03:23:19.227Z,12.90
2022-11-03T03:25:53.442Z,12.80
2022-11-03T03:28:26.199Z,12.80
2022-11-03T03:30:58.031Z,12.80
2022-11-03T03:36:01.752Z,12.80
2022-11-03T03:38:37.081Z,12.70
2022-11-03T03:41:10.408Z,12.70
2022-11-03T03:43:38.146Z,12.60
2022-11-03T03:46:10.247Z,12.60
2022-11-03T03:48:37.538Z,12.60
2022-11-03T03:51:06.649Z,12.50
2022-11-03T03:53:33.572Z,12.50
2022-11-03T03:56:00.527Z,12.50
2022-11-03T03:58:27.336Z,12.50
2022-11-03T04:00:54.418Z,12.40
2022-11-03T04:03:23.782Z,12.40
2022-11-03T04:05:51.636Z,12.30
2022-11-03T04:08:18.634Z,12.30
2022-11-03T04:11:05.067Z,12.30
2022-11-03T04:13:51.806Z,12.20
2022-11-03T04:16:37.760Z,12.20
2022-11-03T04:19:23.142Z,12.20
2022-11-03T04:22:08.492Z,12.20
2022-11-03T04:24:35.347Z,12.20
2022-11-03T04:27:16.872Z,12.20
2022-11-03T04:29:43.875Z,12.20
2022-11-03T04:32:17.231Z,12.10
2022-11-03T04:34:47.220Z,12.10
2022-11-03T04:37:14.556Z,12.10
2022-11-03T04:39:41.970Z,12.10
2022-11-03T04:42:21.159Z,12.00
2022-11-03T04:44:49.218Z,12.00
2022-11-03T04:47:17.840Z,12.00
2022-11-03T04:49:46.851Z,12.00
2022-11-03T04:52:21.945Z,12.00
2022-11-03T04:54:53.004Z,12.00
2022-11-03T04:57:20.131Z,12.00
2022-11-03T04:59:51.161Z,11.90
2022-11-03T05:02:20.257Z,12.00
2022-11-03T05:04:47.321Z,12.00
2022-11-03T05:07:30.966Z,12.00
2022-11-03T05:09:58.137Z,11.90
2022-11-03T05:12:25.662Z,11.80
2022-11-03T05:14:58.022Z,11.90
2022-11-03T05:17:27.759Z,11.80
2022-11-03T05:20:01.390Z,11.90
2022-11-03T05:22:37.141Z,11.90
2022-11-03T05:25:35.563Z,11.90
2022-11-03T05:28:03.292Z,11.90
2022-11-03T05:30:30.828Z,11.90
2022-11-03T05:32:58.375Z,11.90
2022-11-03T05:35:25.287Z,11.90
2022-11-03T05:37:52.323Z,11.90
2022-11-03T05:40:25.522Z,11.90
2022-11-03T05:42:57.550Z,11.90
2022-11-03T05:45:31.111Z,11.80
2022-11-03T05:47:58.869Z,11.80
2022-11-03T05:50:28.828Z,11.80
2022-11-03T05:52:59.232Z,11.70
2022-11-03T05:55:30.480Z,11.70
2022-11-03T05:58:00.252Z,11.60
2022-11-03T06:00:41.885Z,11.60
2022-11-03T06:03:21.604Z,11.60
2022-11-03T06:05:48.501Z,11.60
2022-11-03T06:08:20.668Z,11.60
2022-11-03T06:10:51.330Z,11.50
2022-11-03T06:13:26.819Z,11.50
2022-11-03T06:16:25.521Z,11.60
2022-11-03T06:18:52.343Z,11.60
2022-11-03T06:21:25.857Z,11.60
2022-11-03T06:23:54.863Z,11.70
2022-11-03T06:26:25.618Z,11.70
2022-11-03T06:28:53.099Z,11.70
2022-11-03T06:31:32.757Z,11.70
2022-11-03T06:33:59.604Z,11.80
2022-11-03T06:36:35.274Z,11.80
2022-11-03T06:39:32.086Z,11.90
2022-11-03T06:41:58.914Z,11.90
2022-11-03T06:44:28.423Z,11.90
2022-11-03T06:46:59.987Z,11.90
2022-11-03T06:49:35.105Z,12.00
2022-11-03T06:52:30.938Z,12.00
2022-11-03T06:55:12.171Z,12.10
2022-11-03T06:57:44.518Z,12.10
2022-11-03T07:00:41.085Z,12.10
2022-11-03T07:03:18.541Z,12.10
2022-11-03T07:05:45.531Z,12.10
2022-11-03T07:08:32.866Z,12.10
2022-11-03T07:11:19.854Z,12.20
2022-11-03T07:13:53.628Z,12.20
2022-11-03T07:16:35.137Z,12.20
2022-11-03T07:19:05.981Z,12.30
2022-11-03T07:21:45.342Z,12.30
2022-11-03T07:24:36.486Z,12.30
2022-11-03T07:27:16.349Z,12.30
2022-11-03T07:29:44.843Z,12.40
2022-11-03T07:32:23.963Z,12.40
2022-11-03T07:34:53.683Z,12.40
2022-11-03T07:37:24.389Z,12.50
2022-11-03T07:39:53.095Z,12.50
2022-11-03T07:42:23.284Z,12.50
2022-11-03T07:44:50.695Z,12.60
2022-11-03T07:47:26.086Z,12.60
2022-11-03T07:49:55.109Z,12.60
2022-11-03T07:52:24.823Z,12.70
2022-11-03T07:54:55.053Z,12.60
2022-11-03T07:57:32.092Z,12.70
2022-11-03T08:00:08.823Z,12.60
2022-11-03T08:02:46.813Z,12.60
2022-11-03T08:05:13.883Z,12.70
2022-11-03T08:07:40.716Z,12.70
2022-11-03T08:10:07.974Z,12.70
2022-11-03T08:12:34.772Z,12.70
2022-11-03T08:15:01.671Z,12.70
2022-11-03T08:17:28.483Z,12.80
2022-11-03T08:19:55.331Z,12.80
2022-11-03T08:22:25.867Z,12.80
2022-11-03T08:24:53.226Z,12.80
2022-11-03T08:27:20.127Z,12.90
2022-11-03T08:29:47.191Z,12.90
2022-11-03T08:32:14.095Z,12.90
2022-11-03T08:34:40.983Z,12.90
2022-11-03T08:37:07.788Z,13.00
2022-11-03T08:39:36.265Z,13.00
2022-11-03T08:42:03.188Z,13.00
2022-11-03T08:44:30.050Z,13.10
2022-11-03T08:46:57.023Z,13.10
2022-11-03T08:49:23.968Z,13.10
2022-11-03T08:51:50.803Z,13.20
2022-11-03T08:54:17.633Z,13.20
2022-11-03T08:56:46.585Z,13.30
2022-11-03T08:59:13.676Z,13.20
2022-11-03T09:01:40.631Z,13.30
2022-11-03T09:04:07.819Z,13.40
2022-11-03T09:06:34.697Z,13.30
2022-11-03T09:11:48.495Z,13.40
2022-11-03T09:14:16.048Z,13.50
2022-11-03T09:16:42.970Z,13.40
2022-11-03T09:19:09.772Z,13.50
2022-11-03T09:21:36.577Z,13.50
2022-11-03T09:24:03.466Z,13.60
2022-11-03T09:26:30.391Z,13.60
2022-11-03T09:28:57.165Z,13.50
2022-11-03T09:31:28.348Z,13.60
2022-11-03T09:33:55.277Z,13.60
2022-11-03T09:36:22.135Z,13.60
2022-11-03T09:38:49.009Z,13.60
2022-11-03T09:41:26.215Z,13.60
2022-11-03T09:43:56.699Z,13.70
2022-11-03T09:46:23.856Z,13.70
2022-11-03T09:48:50.861Z,13.70
2022-11-03T09:51:20.916Z,13.80
2022-11-03T09:53:48.450Z,13.80
2022-11-03T09:56:19.110Z,13.80
2022-11-03T09:58:51.273Z,13.80
2022-11-03T10:01:21.010Z,13.80
2022-11-03T10:03:48.265Z,13.90
2022-11-03T10:06:17.187Z,13.90
2022-11-03T10:08:46.347Z,13.90
2022-11-03T10:11:13.773Z,13.90
2022-11-03T10:13:43.732Z,13.90
2022-11-03T10:16:14.935Z,13.90
2022-11-03T10:18:42.742Z,14.00
2022-11-03T10:21:18.076Z,14.00
2022-11-03T10:23:45.012Z,14.10
2022-11-03T10:26:16.497Z,14.00
2022-11-03T10:29:03.728Z,14.10
2022-11-03T10:31:41.235Z,14.10
2022-11-03T10:34:27.025Z,14.10
2022-11-03T10:37:17.622Z,14.20
2022-11-03T10:39:45.464Z,14.20
2022-11-03T10:42:35.744Z,14.20
2022-11-03T10:45:15.512Z,14.20
2022-11-03T10:47:42.288Z,14.20
2022-11-03T10:50:26.898Z,14.30
2022-11-03T10:52:54.630Z,14.30
2022-11-03T10:55:25.268Z,14.40
2022-11-03T10:57:55.733Z,14.40
2022-11-03T11:00:24.073Z,14.40
2022-11-03T11:02:58.949Z,14.40
2022-11-03T11:05:26.452Z,14.50
2022-11-03T11:07:54.508Z,14.40
2022-11-03T11:10:27.152Z,14.50
2022-11-03T11:13:27.575Z,14.50
2022-11-03T11:16:02.072Z,14.50
2022-11-03T11:18:28.844Z,14.60
2022-11-03T11:21:15.881Z,14.60
2022-11-03T11:23:44.582Z,14.60
2022-11-03T11:26:16.039Z,14.60
2022-11-03T11:28:45.524Z,14.70
2022-11-03T11:31:29.136Z,14.70
2022-11-03T11:34:12.270Z,14.70
2022-11-03T11:36:44.936Z,14.70
2022-11-03T11:39:20.523Z,14.70
2022-11-03T11:42:18.816Z,14.80
2022-11-03T11:44:54.760Z,14.80
2022-11-03T11:47:26.045Z,14.80
2022-11-03T11:50:12.286Z,14.80
2022-11-03T11:52:50.396Z,14.80
2022-11-03T11:55:38.657Z,14.90
2022-11-03T11:58:14.112Z,14.90
2022-11-03T12:00:52.965Z,14.90
2022-11-03T12:03:32.366Z,14.90
2022-11-03T12:05:59.244Z,14.90
2022-11-03T12:08:29.810Z,15.00
2022-11-03T12:10:59.142Z,15.00
2022-11-03T12:13:49.363Z,15.00
2022-11-03T12:16:33.074Z,15.00
2022-11-03T12:19:37.354Z,15.00
2022-11-03T12:22:06.629Z,15.00
2022-11-03T12:24:33.399Z,15.00
2022-11-03T12:27:01.170Z,15.00
2022-11-03T12:29:31.097Z,15.00
2022-11-03T12:31:57.853Z,15.10
2022-11-03T12:34:24.695Z,15.10
2022-11-03T12:36:55.945Z,15.10
2022-11-03T12:39:23.185Z,15.10
2022-11-03T12:41:49.979Z,15.10
2022-11-03T12:44:16.962Z,15.10
2022-11-03T12:46:43.823Z,15.10
2022-11-03T12:49:10.636Z,15.20
2022-11-03T12:51:37.511Z,15.20
2022-11-03T12:54:04.442Z,15.20
2022-11-03T12:56:31.224Z,15.20
2022-11-03T12:58:57.976Z,15.20
2022-11-03T13:01:25.269Z,15.20
2022-11-03T13:03:52.185Z,15.30
2022-11-03T13:06:18.971Z,15.30
2022-11-03T13:08:47.879Z,15.30
2022-11-03T13:11:36.249Z,15.40
2022-11-03T13:14:04.982Z,15.40
2022-11-03T13:16:32.220Z,15.40
2022-11-03T13:18:59.009Z,15.40
2022-11-03T13:21:25.900Z,15.40
2022-11-03T13:23:53.431Z,15.40
2022-11-03T13:26:20.288Z,15.40
2022-11-03T13:28:47.638Z,15.40
2022-11-03T13:31:14.390Z,15.40
2022-11-03T13:33:41.158Z,15.40
2022-11-03T13:36:08.265Z,15.40
2022-11-03T13:38:35.104Z,15.40
2022-11-03T13:41:08.135Z,15.40
2022-11-03T13:43:35.988Z,15.40
2022-11-03T13:46:03.968Z,15.40
2022-11-03T13:49:31.767Z,15.40
2022-11-03T13:51:19.099Z,15.40
2022-11-03T13:59:27.498Z,15.40
2022-11-03T14:04:42.216Z,15.30
2022-11-03T14:07:10.002Z,15.30
2022-11-03T14:12:22.329Z,15.30
2022-11-03T14:14:49.077Z,15.20
2022-11-03T14:17:16.013Z,15.20
2022-11-03T14:19:46.171Z,15.20
2022-11-03T14:22:15.705Z,15.20
2022-11-03T14:24:42.603Z,15.10
2022-11-03T14:27:09.480Z,15.10
2022-11-03T14:29:36.357Z,15.10
2022-11-03T14:32:03.214Z,15.10
2022-11-03T14:34:30.034Z,15.10
2022-11-03T14:36:57.079Z,15.10
2022-11-03T14:39:23.872Z,15.00
2022-11-03T14:42:05.987Z,15.00
2022-11-03T14:44:37.040Z,15.00
2022-11-03T14:47:06.020Z,14.90
2022-11-03T14:49:34.312Z,14.90
2022-11-03T14:52:02.380Z,14.90
2022-11-03T14:54:30.642Z,14.80
2022-11-03T14:56:58.176Z,14.80
2022-11-03T14:59:25.789Z,14.70
2022-11-03T15:01:53.556Z,14.70
2022-11-03T15:04:21.395Z,14.60
2022-11-03T15:06:49.040Z,14.50
2022-11-03T15:09:15.942Z,14.50
2022-11-03T15:11:43.871Z,14.50
2022-11-03T15:14:11.965Z,14.40
2022-11-03T15:16:39.240Z,14.30
2022-11-03T15:19:07.163Z,14.30
2022-11-03T15:21:34.000Z,14.30
2022-11-03T15:26:48.041Z,14.10
2022-11-03T15:29:14.907Z,14.10
2022-11-03T15:31:46.390Z,14.10
2022-11-03T15:34:15.405Z,14.00
2022-11-03T15:36:42.473Z,14.00
2022-11-03T15:39:09.593Z,14.00
2022-11-03T15:41:36.407Z,13.90
2022-11-03T15:44:03.377Z,13.90
2022-11-03T15:46:30.187Z,13.90
2022-11-03T15:48:57.783Z,13.80
2022-11-03T15:51:25.368Z,13.80
2022-11-03T15:53:57.924Z,13.70
2022-11-03T15:56:25.795Z,13.60
2022-11-03T15:58:52.570Z,13.60
2022-11-03T16:01:19.418Z,13.50
2022-11-03T16:03:46.336Z,13.40
2022-11-03T16:06:13.166Z,13.40
2022-11-03T16:08:40.030Z,13.40
2022-11-03T16:11:07.141Z,13.30
2022-11-03T16:13:33.939Z,13.30
2022-11-03T16:16:00.706Z,13.30
2022-11-03T16:18:27.594Z,13.30
2022-11-03T16:20:54.354Z,13.30
2022-11-03T16:23:21.181Z,13.20
2022-11-03T16:25:47.936Z,13.20
2022-11-03T16:28:14.703Z,13.10
2022-11-03T16:30:41.599Z,13.10
2022-11-03T16:33:08.883Z,13.10
2022-11-03T16:35:35.674Z,13.10
2022-11-03T16:38:02.507Z,13.10
2022-11-03T16:40:29.478Z,13.10
2022-11-03T16:42:56.228Z,13.10
2022-11-03T16:45:26.626Z,13.00
2022-11-03T16:47:54.116Z,13.00
2022-11-03T16:50:20.916Z,12.90
2022-11-03T16:52:49.395Z,12.90
2022-11-03T16:55:17.704Z,12.90
2022-11-03T16:57:45.619Z,12.90
2022-11-03T17:00:15.721Z,12.80
2022-11-03T17:02:42.675Z,12.80
2022-11-03T17:05:10.399Z,12.80
2022-11-03T17:07:37.235Z,12.80
2022-11-03T17:10:05.866Z,12.70
2022-11-03T17:12:32.723Z,12.70
2022-11-03T17:14:59.618Z,12.70
2022-11-03T17:17:26.457Z,12.70
2022-11-03T17:19:53.359Z,12.80
2022-11-03T17:22:22.860Z,12.80
2022-11-03T17:24:50.463Z,12.80
2022-11-03T17:27:25.578Z,12.80
2022-11-03T17:30:09.019Z,12.80
2022-11-03T17:32:41.854Z,12.80
2022-11-03T17:35:18.937Z,12.80
2022-11-03T17:37:45.782Z,12.80
2022-11-03T17:40:21.735Z,12.80
2022-11-03T17:42:49.428Z,12.80
2022-11-03T17:45:18.580Z,12.80
2022-11-03T17:47:45.589Z,12.80
2022-11-03T17:50:17.959Z,12.80
2022-11-03T17:52:46.586Z,12.80
2022-11-03T17:55:25.310Z,12.70
2022-11-03T17:57:52.400Z,12.70
2022-11-03T18:00:21.020Z,12.60
2022-11-03T18:02:50.575Z,12.60
2022-11-03T18:05:20.443Z,12.60
2022-11-03T18:07:49.591Z,12.60
2022-11-03T18:10:16.565Z,12.50
2022-11-03T18:13:05.079Z,12.50
2022-11-03T18:15:33.590Z,12.50
2022-11-03T18:18:01.648Z,12.50
2022-11-03T18:20:29.976Z,12.50
2022-11-03T18:23:15.683Z,12.50
2022-11-03T18:25:42.707Z,12.50
2022-11-03T18:28:09.716Z,12.50
2022-11-03T18:30:37.713Z,12.40
2022-11-03T18:33:05.067Z,12.40
2022-11-03T18:35:34.348Z,12.40
2022-11-03T18:38:01.326Z,12.40
2022-11-03T18:40:30.500Z,12.40
2022-11-03T18:42:57.439Z,12.40
2022-11-03T18:45:24.223Z,12.40
2022-11-03T18:47:52.096Z,12.40
2022-11-03T18:50:19.093Z,12.40
2022-11-03T18:52:48.103Z,12.40
2022-11-03T18:55:17.047Z,12.40
2022-11-03T18:57:44.423Z,12.40
2022-11-03T19:00:16.326Z,12.40
2022-11-03T19:02:43.158Z,12.40
2022-11-03T19:05:13.702Z,12.30
2022-11-03T19:07:42.648Z,12.30
2022-11-03T19:10:21.015Z,12.30
2022-11-03T19:12:48.229Z,12.30
2022-11-03T19:15:23.889Z,12.30
2022-11-03T19:17:56.962Z,12.20
2022-11-03T19:20:25.516Z,12.20
2022-11-03T19:22:52.831Z,12.20
2022-11-03T19:25:19.694Z,12.20
2022-11-03T19:27:49.076Z,12.20
2022-11-03T19:30:18.549Z,12.10
2022-11-03T19:32:51.166Z,12.10
2022-11-03T19:35:30.029Z,12.10
2022-11-03T19:38:13.013Z,12.10
2022-11-03T19:41:00.794Z,12.00
2022-11-03T19:43:33.314Z,12.00
2022-11-03T19:46:01.466Z,12.00
2022-11-03T19:48:33.175Z,12.00
2022-11-03T19:51:00.038Z,12.00
2022-11-03T19:53:29.077Z,11.90
2022-11-03T19:55:56.515Z,11.90
2022-11-03T19:58:28.102Z,11.90
2022-11-03T20:00:55.369Z,11.90
2022-11-03T20:03:23.389Z,11.90
2022-11-03T20:05:56.892Z,11.90
2022-11-03T20:08:26.128Z,11.90
2022-11-03T20:10:53.652Z,11.90
2022-11-03T20:13:23.801Z,11.90
2022-11-03T20:15:57.355Z,11.90
2022-11-03T20:18:26.420Z,11.90
2022-11-03T20:20:54.084Z,11.90
2022-11-03T20:23:33.030Z,11.80
2022-11-03T20:26:01.278Z,11.80
2022-11-03T20:28:35.802Z,11.80
2022-11-03T20:31:04.284Z,11.80
2022-11-03T20:33:33.474Z,11.80
2022-11-03T20:36:02.237Z,11.80
2022-11-03T20:38:29.335Z,11.80
2022-11-03T20:41:00.355Z,11.70
2022-11-03T20:43:40.093Z,11.80
2022-11-03T20:46:31.316Z,11.70
2022-11-03T20:48:58.413Z,11.70
2022-11-03T20:51:33.740Z,11.70
2022-11-03T20:54:02.515Z,11.70
2022-11-03T20:56:29.950Z,11.60
2022-11-03T20:58:57.961Z,11.60
2022-11-03T21:01:30.867Z,11.60
2022-11-03T21:04:00.326Z,11.60
2022-11-03T21:06:30.310Z,11.60
2022-11-03T21:08:57.715Z,11.50
2022-11-03T21:11:28.016Z,11.50
2022-11-03T21:14:08.482Z,11.50
2022-11-03T21:16:53.754Z,11.50
2022-11-03T21:19:40.506Z,11.50
2022-11-03T21:22:54.179Z,11.50
2022-11-03T21:25:23.384Z,11.40
2022-11-03T21:27:50.741Z,11.40
2022-11-03T21:30:18.329Z,11.40
2022-11-03T21:32:45.501Z,11.50
2022-11-03T21:35:19.489Z,11.50
2022-11-03T21:37:47.105Z,11.50
2022-11-03T21:40:14.039Z,11.40
2022-11-03T21:42:59.293Z,11.50
2022-11-03T21:45:26.477Z,11.40
2022-11-03T21:48:14.088Z,11.40
2022-11-03T21:50:41.995Z,11.40
2022-11-03T21:53:09.356Z,11.40
2022-11-03T21:55:36.699Z,11.40
2022-11-03T21:58:04.353Z,11.40
2022-11-03T22:00:31.561Z,11.40
2022-11-03T22:02:59.329Z,11.40
2022-11-03T22:05:26.636Z,11.40
2022-11-03T22:07:53.632Z,11.40
2022-11-03T22:10:20.666Z,11.40
2022-11-03T22:12:54.506Z,11.40
2022-11-03T22:15:39.647Z,11.40
2022-11-03T22:18:07.297Z,11.40
2022-11-03T22:20:55.633Z,11.40
2022-11-03T22:23:40.999Z,11.40
2022-11-03T22:26:31.467Z,11.30
2022-11-03T22:29:28.697Z,11.30
2022-11-03T22:31:55.516Z,11.30
2022-11-03T22:34:41.159Z,11.30
2022-11-03T22:37:08.062Z,11.30
2022-11-03T22:39:53.828Z,11.30
2022-11-03T22:42:39.304Z,11.30
2022-11-03T22:45:25.332Z,11.30
2022-11-03T22:47:57.262Z,11.30
2022-11-03T22:50:24.462Z,11.30
2022-11-03T22:52:51.557Z,11.30
2022-11-03T22:55:18.421Z,11.20
2022-11-03T22:57:45.202Z,11.20
2022-11-03T23:00:13.539Z,11.30
2022-11-03T23:02:40.659Z,11.30
2022-11-03T23:05:07.927Z,11.20
2022-11-03T23:07:40.831Z,11.30
2022-11-03T23:10:08.781Z,11.30
2022-11-03T23:12:35.616Z,11.30
2022-11-03T23:15:20.992Z,11.20
2022-11-03T23:18:08.033Z,11.20
2022-11-03T23:20:56.741Z,11.20
2022-11-03T23:23:42.198Z,11.20
2022-11-03T23:26:09.513Z,11.20
2022-11-03T23:28:36.370Z,11.20
2022-11-03T23:31:03.183Z,11.20
2022-11-03T23:33:31.122Z,11.20
2022-11-03T23:35:58.247Z,11.20
2022-11-03T23:38:25.043Z,11.20
2022-11-03T23:40:51.955Z,11.20
2022-11-03T23:43:18.730Z,11.20
2022-11-03T23:46:04.006Z,11.20
2022-11-03T23:48:46.000Z,11.20
2022-11-03T23:51:21.143Z,11.20
2022-11-03T23:53:48.203Z,11.20
2022-11-03T23:56:36.079Z,11.20
2022-11-03T23:59:03.850Z,11.20
